sensor_id;sensor_type;location;lat;lon;timestamp;temperature;humidity
4183;DHT22;2105;52.300;9.182;2022-07-12T00:01:36;16.70;99.90
4183;DHT22;2105;52.300;9.182;2022-07-12T00:04:03;16.80;99.90
4183;DHT22;2105;52.300;9.182;2022-07-12T00:06:30;16.80;99.90
4183;DHT22;2105;52.300;9.182;2022-07-12T00:08:56;16.80;99.90
4183;DHT22;2105;52.300;9.182;2022-07-12T00:11:23;16.80;99.90
4183;DHT22;2105;52.300;9.182;2022-07-12T00:13:50;16.90;99.90
4183;DHT22;2105;52.300;9.182;2022-07-12T00:16:17;16.90;99.90
4183;DHT22;2105;52.300;9.182;2022-07-12T00:18:44;16.80;99.90
4183;DHT22;2105;52.300;9.182;2022-07-12T00:21:11;16.90;99.90
4183;DHT22;2105;52.300;9.182;2022-07-12T00:23:38;16.90;99.90
4183;DHT22;2105;52.300;9.182;2022-07-12T00:26:04;17.00;99.90
4183;DHT22;2105;52.300;9.182;2022-07-12T00:28:31;17.00;99.90
4183;DHT22;2105;52.300;9.182;2022-07-12T00:30:59;16.90;99.90
4183;DHT22;2105;52.300;9.182;2022-07-12T00:33:26;16.80;99.90
4183;DHT22;2105;52.300;9.182;2022-07-12T00:35:54;16.90;99.90
4183;DHT22;2105;52.300;9.182;2022-07-12T00:38:21;16.90;99.90
4183;DHT22;2105;52.300;9.182;2022-07-12T00:40:47;16.80;99.90
4183;DHT22;2105;52.300;9.182;2022-07-12T00:43:15;16.70;99.90
4183;DHT22;2105;52.300;9.182;2022-07-12T00:45:41;16.70;99.90
4183;DHT22;2105;52.300;9.182;2022-07-12T00:48:09;16.70;99.90
4183;DHT22;2105;52.300;9.182;2022-07-12T00:50:36;16.70;99.90
4183;DHT22;2105;52.300;9.182;2022-07-12T00:53:04;16.60;99.90
4183;DHT22;2105;52.300;9.182;2022-07-12T00:55:31;16.60;99.90
4183;DHT22;2105;52.300;9.182;2022-07-12T00:57:57;16.60;99.90
4183;DHT22;2105;52.300;9.182;2022-07-12T01:00:26;16.50;99.90
4183;DHT22;2105;52.300;9.182;2022-07-12T01:02:54;16.40;99.90
4183;DHT22;2105;52.300;9.182;2022-07-12T01:05:21;16.40;99.90
4183;DHT22;2105;52.300;9.182;2022-07-12T01:07:49;16.50;99.90
4183;DHT22;2105;52.300;9.182;2022-07-12T01:10:17;16.40;99.90
4183;DHT22;2105;52.300;9.182;2022-07-12T01:12:44;16.30;99.90
4183;DHT22;2105;52.300;9.182;2022-07-12T01:15:11;16.30;99.90
4183;DHT22;2105;52.300;9.182;2022-07-12T01:17:38;16.30;99.90
4183;DHT22;2105;52.300;9.182;2022-07-12T01:20:06;16.30;99.90
4183;DHT22;2105;52.300;9.182;2022-07-12T01:22:34;16.30;99.90
4183;DHT22;2105;52.300;9.182;2022-07-12T01:25:04;16.30;99.90
4183;DHT22;2105;52.300;9.182;2022-07-12T01:27:32;16.30;99.90
4183;DHT22;2105;52.300;9.182;2022-07-12T01:30:01;16.20;99.90
4183;DHT22;2105;52.300;9.182;2022-07-12T01:32:28;16.20;99.90
4183;DHT22;2105;52.300;9.182;2022-07-12T01:34:57;16.20;99.90
4183;DHT22;2105;52.300;9.182;2022-07-12T01:37:25;16.20;99.90
4183;DHT22;2105;52.300;9.182;2022-07-12T01:39:53;16.20;99.90
4183;DHT22;2105;52.300;9.182;2022-07-12T01:42:24;16.10;99.90
4183;DHT22;2105;52.300;9.182;2022-07-12T01:44:51;16.10;99.90
4183;DHT22;2105;52.300;9.182;2022-07-12T01:47:19;16.10;99.90
4183;DHT22;2105;52.300;9.182;2022-07-12T01:49:45;16.00;99.90
4183;DHT22;2105;52.300;9.182;2022-07-12T01:52:12;16.00;99.90
4183;DHT22;2105;52.300;9.182;2022-07-12T01:54:40;16.00;99.90
4183;DHT22;2105;52.300;9.182;2022-07-12T01:57:07;16.00;99.90
4183;DHT22;2105;52.300;9.182;2022-07-12T01:59:36;16.10;99.90
4183;DHT22;2105;52.300;9.182;2022-07-12T02:02:03;16.20;99.90
4183;DHT22;2105;52.300;9.182;2022-07-12T02:04:30;16.10;99.90
4183;DHT22;2105;52.300;9.182;2022-07-12T02:06:57;16.20;99.90
4183;DHT22;2105;52.300;9.182;2022-07-12T02:09:23;16.20;99.90
4183;DHT22;2105;52.300;9.182;2022-07-12T02:11:50;16.10;99.90
4183;DHT22;2105;52.300;9.182;2022-07-12T02:14:17;16.20;99.90
4183;DHT22;2105;52.300;9.182;2022-07-12T02:16:45;16.20;99.90
4183;DHT22;2105;52.300;9.182;2022-07-12T02:19:13;16.20;99.90
4183;DHT22;2105;52.300;9.182;2022-07-12T02:21:40;16.10;99.90
4183;DHT22;2105;52.300;9.182;2022-07-12T02:24:07;16.20;99.90
4183;DHT22;2105;52.300;9.182;2022-07-12T02:26:34;16.10;99.90
4183;DHT22;2105;52.300;9.182;2022-07-12T02:29:02;16.10;99.90
4183;DHT22;2105;52.300;9.182;2022-07-12T02:31:28;16.10;99.90
4183;DHT22;2105;52.300;9.182;2022-07-12T02:33:56;16.10;99.90
4183;DHT22;2105;52.300;9.182;2022-07-12T02:36:23;16.10;99.90
4183;DHT22;2105;52.300;9.182;2022-07-12T02:38:50;16.10;99.90
4183;DHT22;2105;52.300;9.182;2022-07-12T02:41:17;16.20;99.90
4183;DHT22;2105;52.300;9.182;2022-07-12T02:43:43;16.10;99.90
4183;DHT22;2105;52.300;9.182;2022-07-12T02:46:11;16.10;99.90
4183;DHT22;2105;52.300;9.182;2022-07-12T02:48:39;16.20;99.90
4183;DHT22;2105;52.300;9.182;2022-07-12T02:51:07;16.10;99.90
4183;DHT22;2105;52.300;9.182;2022-07-12T02:53:35;16.10;99.90
4183;DHT22;2105;52.300;9.182;2022-07-12T02:56:02;16.10;99.90
4183;DHT22;2105;52.300;9.182;2022-07-12T02:58:29;16.10;99.90
4183;DHT22;2105;52.300;9.182;2022-07-12T03:00:55;16.10;99.90
4183;DHT22;2105;52.300;9.182;2022-07-12T03:03:22;16.10;99.90
4183;DHT22;2105;52.300;9.182;2022-07-12T03:05:49;16.10;99.90
4183;DHT22;2105;52.300;9.182;2022-07-12T03:08:17;16.10;99.90
4183;DHT22;2105;52.300;9.182;2022-07-12T03:10:45;16.20;99.90
4183;DHT22;2105;52.300;9.182;2022-07-12T03:13:11;16.20;99.90
4183;DHT22;2105;52.300;9.182;2022-07-12T03:15:38;16.10;99.90
4183;DHT22;2105;52.300;9.182;2022-07-12T03:18:05;16.20;99.90
4183;DHT22;2105;52.300;9.182;2022-07-12T03:20:32;16.10;99.90
4183;DHT22;2105;52.300;9.182;2022-07-12T03:22:58;16.10;99.90
4183;DHT22;2105;52.300;9.182;2022-07-12T03:25:26;16.10;99.90
4183;DHT22;2105;52.300;9.182;2022-07-12T03:27:53;16.10;99.90
4183;DHT22;2105;52.300;9.182;2022-07-12T03:30:20;16.00;99.90
4183;DHT22;2105;52.300;9.182;2022-07-12T03:32:46;16.10;99.90
4183;DHT22;2105;52.300;9.182;2022-07-12T03:35:13;16.10;99.90
4183;DHT22;2105;52.300;9.182;2022-07-12T03:37:42;16.10;99.90
4183;DHT22;2105;52.300;9.182;2022-07-12T03:40:09;16.10;99.90
4183;DHT22;2105;52.300;9.182;2022-07-12T03:42:37;16.10;99.90
4183;DHT22;2105;52.300;9.182;2022-07-12T03:45:05;16.10;99.90
4183;DHT22;2105;52.300;9.182;2022-07-12T03:47:32;16.20;99.90
4183;DHT22;2105;52.300;9.182;2022-07-12T03:50:00;16.20;99.90
4183;DHT22;2105;52.300;9.182;2022-07-12T03:52:28;16.20;99.90
4183;DHT22;2105;52.300;9.182;2022-07-12T03:54:54;16.20;99.90
4183;DHT22;2105;52.300;9.182;2022-07-12T03:57:21;16.20;99.90
4183;DHT22;2105;52.300;9.182;2022-07-12T03:59:49;16.10;99.90
4183;DHT22;2105;52.300;9.182;2022-07-12T04:02:16;16.10;99.90
4183;DHT22;2105;52.300;9.182;2022-07-12T04:04:42;16.10;99.90
4183;DHT22;2105;52.300;9.182;2022-07-12T04:07:09;16.10;99.90
4183;DHT22;2105;52.300;9.182;2022-07-12T04:09:36;16.10;99.90
4183;DHT22;2105;52.300;9.182;2022-07-12T04:12:03;16.10;99.90
4183;DHT22;2105;52.300;9.182;2022-07-12T04:14:30;16.20;99.90
4183;DHT22;2105;52.300;9.182;2022-07-12T04:16:58;16.20;99.90
4183;DHT22;2105;52.300;9.182;2022-07-12T04:19:25;16.20;99.90
4183;DHT22;2105;52.300;9.182;2022-07-12T04:21:53;16.20;99.90
4183;DHT22;2105;52.300;9.182;2022-07-12T04:24:19;16.20;99.90
4183;DHT22;2105;52.300;9.182;2022-07-12T04:26:47;16.20;99.90
4183;DHT22;2105;52.300;9.182;2022-07-12T04:29:14;16.30;99.90
4183;DHT22;2105;52.300;9.182;2022-07-12T04:31:40;16.20;99.90
4183;DHT22;2105;52.300;9.182;2022-07-12T04:34:08;16.20;99.90
4183;DHT22;2105;52.300;9.182;2022-07-12T04:36:35;16.20;99.90
4183;DHT22;2105;52.300;9.182;2022-07-12T04:39:02;16.20;99.90
4183;DHT22;2105;52.300;9.182;2022-07-12T04:41:29;16.20;99.90
4183;DHT22;2105;52.300;9.182;2022-07-12T04:43:56;16.20;99.90
4183;DHT22;2105;52.300;9.182;2022-07-12T04:46:23;16.20;99.90
4183;DHT22;2105;52.300;9.182;2022-07-12T04:48:50;16.20;99.90
4183;DHT22;2105;52.300;9.182;2022-07-12T04:51:17;16.10;99.90
4183;DHT22;2105;52.300;9.182;2022-07-12T04:53:44;16.10;99.90
4183;DHT22;2105;52.300;9.182;2022-07-12T04:56:11;16.10;99.90
4183;DHT22;2105;52.300;9.182;2022-07-12T04:58:37;16.20;99.90
4183;DHT22;2105;52.300;9.182;2022-07-12T05:01:04;16.20;99.90
4183;DHT22;2105;52.300;9.182;2022-07-12T05:03:32;16.10;99.90
4183;DHT22;2105;52.300;9.182;2022-07-12T05:05:59;16.20;99.90
4183;DHT22;2105;52.300;9.182;2022-07-12T05:08:27;16.20;99.90
4183;DHT22;2105;52.300;9.182;2022-07-12T05:10:54;16.10;99.90
4183;DHT22;2105;52.300;9.182;2022-07-12T05:13:21;16.10;99.90
4183;DHT22;2105;52.300;9.182;2022-07-12T05:15:47;16.00;99.90
4183;DHT22;2105;52.300;9.182;2022-07-12T05:18:14;16.10;99.90
4183;DHT22;2105;52.300;9.182;2022-07-12T05:20:41;16.10;99.90
4183;DHT22;2105;52.300;9.182;2022-07-12T05:23:08;16.10;99.90
4183;DHT22;2105;52.300;9.182;2022-07-12T05:25:35;16.20;99.90
4183;DHT22;2105;52.300;9.182;2022-07-12T05:28:03;16.20;99.90
4183;DHT22;2105;52.300;9.182;2022-07-12T05:30:30;16.20;99.90
4183;DHT22;2105;52.300;9.182;2022-07-12T05:32:56;16.30;99.90
4183;DHT22;2105;52.300;9.182;2022-07-12T05:35:23;16.40;99.90
4183;DHT22;2105;52.300;9.182;2022-07-12T05:37:50;16.40;99.90
4183;DHT22;2105;52.300;9.182;2022-07-12T05:40:17;16.50;99.90
4183;DHT22;2105;52.300;9.182;2022-07-12T05:42:45;16.50;99.90
4183;DHT22;2105;52.300;9.182;2022-07-12T05:45:12;16.50;99.90
4183;DHT22;2105;52.300;9.182;2022-07-12T05:47:39;16.60;99.90
4183;DHT22;2105;52.300;9.182;2022-07-12T05:50:06;16.60;99.90
4183;DHT22;2105;52.300;9.182;2022-07-12T05:52:33;16.70;99.90
4183;DHT22;2105;52.300;9.182;2022-07-12T05:55:17;16.70;99.90
4183;DHT22;2105;52.300;9.182;2022-07-12T05:57:45;16.70;99.90
4183;DHT22;2105;52.300;9.182;2022-07-12T06:00:12;16.70;99.90
4183;DHT22;2105;52.300;9.182;2022-07-12T06:02:40;16.70;99.90
4183;DHT22;2105;52.300;9.182;2022-07-12T06:05:07;16.70;99.90
4183;DHT22;2105;52.300;9.182;2022-07-12T06:07:34;16.80;99.90
4183;DHT22;2105;52.300;9.182;2022-07-12T06:10:01;16.90;99.90
4183;DHT22;2105;52.300;9.182;2022-07-12T06:12:28;17.00;99.90
4183;DHT22;2105;52.300;9.182;2022-07-12T06:14:56;17.10;99.90
4183;DHT22;2105;52.300;9.182;2022-07-12T06:17:23;17.20;99.90
4183;DHT22;2105;52.300;9.182;2022-07-12T06:19:49;17.20;99.90
4183;DHT22;2105;52.300;9.182;2022-07-12T06:22:16;17.30;96.60
4183;DHT22;2105;52.300;9.182;2022-07-12T06:24:43;17.30;1.00
4183;DHT22;2105;52.300;9.182;2022-07-12T06:27:09;17.30;50.60
4183;DHT22;2105;52.300;9.182;2022-07-12T06:29:36;17.40;90.60
4183;DHT22;2105;52.300;9.182;2022-07-12T06:32:05;17.50;21.10
4183;DHT22;2105;52.300;9.182;2022-07-12T06:34:36;17.60;46.70
4183;DHT22;2105;52.300;9.182;2022-07-12T06:37:03;17.70;1.00
4183;DHT22;2105;52.300;9.182;2022-07-12T06:39:30;17.80;1.00
4183;DHT22;2105;52.300;9.182;2022-07-12T06:41:57;17.80;1.00
4183;DHT22;2105;52.300;9.182;2022-07-12T06:44:24;17.90;1.00
4183;DHT22;2105;52.300;9.182;2022-07-12T06:46:50;18.00;1.00
4183;DHT22;2105;52.300;9.182;2022-07-12T06:49:18;18.10;99.90
4183;DHT22;2105;52.300;9.182;2022-07-12T06:51:45;18.20;99.90
4183;DHT22;2105;52.300;9.182;2022-07-12T06:54:11;18.50;99.90
4183;DHT22;2105;52.300;9.182;2022-07-12T06:56:38;18.90;1.00
4183;DHT22;2105;52.300;9.182;2022-07-12T06:59:05;19.50;99.90
4183;DHT22;2105;52.300;9.182;2022-07-12T07:01:32;20.00;99.90
4183;DHT22;2105;52.300;9.182;2022-07-12T07:03:58;20.60;3.10
4183;DHT22;2105;52.300;9.182;2022-07-12T07:06:27;20.80;99.90
4183;DHT22;2105;52.300;9.182;2022-07-12T07:08:53;20.50;99.90
4183;DHT22;2105;52.300;9.182;2022-07-12T07:11:20;20.10;1.00
4183;DHT22;2105;52.300;9.182;2022-07-12T07:13:47;19.70;1.00
4183;DHT22;2105;52.300;9.182;2022-07-12T07:16:13;19.20;1.00
4183;DHT22;2105;52.300;9.182;2022-07-12T07:18:40;19.00;99.90
4183;DHT22;2105;52.300;9.182;2022-07-12T07:21:06;18.90;99.90
4183;DHT22;2105;52.300;9.182;2022-07-12T07:23:34;18.90;99.90
4183;DHT22;2105;52.300;9.182;2022-07-12T07:26:01;19.80;99.90
4183;DHT22;2105;52.300;9.182;2022-07-12T07:28:28;21.40;99.90
4183;DHT22;2105;52.300;9.182;2022-07-12T07:30:55;22.70;1.00
4183;DHT22;2105;52.300;9.182;2022-07-12T07:33:22;24.00;99.90
4183;DHT22;2105;52.300;9.182;2022-07-12T07:35:50;24.50;99.90
4183;DHT22;2105;52.300;9.182;2022-07-12T07:38:19;25.00;99.90
4183;DHT22;2105;52.300;9.182;2022-07-12T07:40:47;25.70;99.90
4183;DHT22;2105;52.300;9.182;2022-07-12T07:43:13;25.50;92.40
4183;DHT22;2105;52.300;9.182;2022-07-12T07:45:40;24.70;99.90
4183;DHT22;2105;52.300;9.182;2022-07-12T07:48:07;24.70;99.90
4183;DHT22;2105;52.300;9.182;2022-07-12T07:50:33;24.80;99.90
4183;DHT22;2105;52.300;9.182;2022-07-12T07:53:00;24.90;99.90
4183;DHT22;2105;52.300;9.182;2022-07-12T07:55:27;24.90;99.90
4183;DHT22;2105;52.300;9.182;2022-07-12T07:57:55;24.70;99.90
4183;DHT22;2105;52.300;9.182;2022-07-12T08:00:25;24.20;99.90
4183;DHT22;2105;52.300;9.182;2022-07-12T08:02:51;23.50;99.90
4183;DHT22;2105;52.300;9.182;2022-07-12T08:05:18;22.70;99.90
4183;DHT22;2105;52.300;9.182;2022-07-12T08:07:44;22.20;1.00
4183;DHT22;2105;52.300;9.182;2022-07-12T08:10:11;21.50;1.00
4183;DHT22;2105;52.300;9.182;2022-07-12T08:12:38;21.40;1.00
4183;DHT22;2105;52.300;9.182;2022-07-12T08:15:07;21.10;1.00
4183;DHT22;2105;52.300;9.182;2022-07-12T08:17:34;20.90;1.00
4183;DHT22;2105;52.300;9.182;2022-07-12T08:20:02;20.90;1.00
4183;DHT22;2105;52.300;9.182;2022-07-12T08:22:29;21.00;1.00
4183;DHT22;2105;52.300;9.182;2022-07-12T08:24:56;21.00;1.00
4183;DHT22;2105;52.300;9.182;2022-07-12T08:27:22;20.70;99.90
4183;DHT22;2105;52.300;9.182;2022-07-12T08:29:49;20.80;99.90
4183;DHT22;2105;52.300;9.182;2022-07-12T08:32:17;21.10;95.70
4183;DHT22;2105;52.300;9.182;2022-07-12T08:34:44;21.10;1.00
4183;DHT22;2105;52.300;9.182;2022-07-12T08:37:11;21.20;1.00
4183;DHT22;2105;52.300;9.182;2022-07-12T08:39:37;21.10;1.00
4183;DHT22;2105;52.300;9.182;2022-07-12T08:42:07;21.40;1.00
4183;DHT22;2105;52.300;9.182;2022-07-12T08:44:34;21.60;1.00
4183;DHT22;2105;52.300;9.182;2022-07-12T08:47:01;21.70;1.00
4183;DHT22;2105;52.300;9.182;2022-07-12T08:49:29;21.90;5.70
4183;DHT22;2105;52.300;9.182;2022-07-12T08:51:55;22.00;1.00
4183;DHT22;2105;52.300;9.182;2022-07-12T08:54:22;21.80;1.00
4183;DHT22;2105;52.300;9.182;2022-07-12T08:56:49;21.70;1.00
4183;DHT22;2105;52.300;9.182;2022-07-12T08:59:17;21.50;1.00
4183;DHT22;2105;52.300;9.182;2022-07-12T09:01:45;21.60;1.00
4183;DHT22;2105;52.300;9.182;2022-07-12T09:04:14;21.80;1.00
4183;DHT22;2105;52.300;9.182;2022-07-12T09:06:42;22.10;1.00
4183;DHT22;2105;52.300;9.182;2022-07-12T09:09:09;22.20;1.00
4183;DHT22;2105;52.300;9.182;2022-07-12T09:11:37;22.50;1.00
4183;DHT22;2105;52.300;9.182;2022-07-12T09:14:04;22.60;1.00
4183;DHT22;2105;52.300;9.182;2022-07-12T09:16:31;22.80;1.00
4183;DHT22;2105;52.300;9.182;2022-07-12T09:19:14;22.90;99.90
4183;DHT22;2105;52.300;9.182;2022-07-12T09:21:49;22.80;99.90
4183;DHT22;2105;52.300;9.182;2022-07-12T09:24:16;23.10;99.90
4183;DHT22;2105;52.300;9.182;2022-07-12T09:26:44;23.20;99.90
4183;DHT22;2105;52.300;9.182;2022-07-12T09:29:12;23.20;99.90
4183;DHT22;2105;52.300;9.182;2022-07-12T09:31:53;23.30;99.90
4183;DHT22;2105;52.300;9.182;2022-07-12T09:34:34;23.30;99.90
4183;DHT22;2105;52.300;9.182;2022-07-12T09:37:39;23.50;99.90
4183;DHT22;2105;52.300;9.182;2022-07-12T09:40:08;23.50;99.90
4183;DHT22;2105;52.300;9.182;2022-07-12T09:42:46;23.60;99.90
4183;DHT22;2105;52.300;9.182;2022-07-12T09:45:15;23.80;99.90
4183;DHT22;2105;52.300;9.182;2022-07-12T09:47:43;23.90;99.90
4183;DHT22;2105;52.300;9.182;2022-07-12T09:50:11;24.00;99.90
4183;DHT22;2105;52.300;9.182;2022-07-12T09:52:41;24.10;99.90
4183;DHT22;2105;52.300;9.182;2022-07-12T09:55:12;24.10;99.90
4183;DHT22;2105;52.300;9.182;2022-07-12T09:57:40;24.10;99.90
4183;DHT22;2105;52.300;9.182;2022-07-12T10:00:09;24.30;99.90
4183;DHT22;2105;52.300;9.182;2022-07-12T10:02:37;24.50;99.90
4183;DHT22;2105;52.300;9.182;2022-07-12T10:05:07;24.70;99.90
4183;DHT22;2105;52.300;9.182;2022-07-12T10:07:37;24.80;99.90
4183;DHT22;2105;52.300;9.182;2022-07-12T10:10:06;24.70;99.90
4183;DHT22;2105;52.300;9.182;2022-07-12T10:12:34;24.70;99.90
4183;DHT22;2105;52.300;9.182;2022-07-12T10:15:03;24.80;99.90
4183;DHT22;2105;52.300;9.182;2022-07-12T10:17:30;24.90;48.40
4183;DHT22;2105;52.300;9.182;2022-07-12T10:20:14;24.70;1.00
4183;DHT22;2105;52.300;9.182;2022-07-12T10:22:41;24.30;26.90
4183;DHT22;2105;52.300;9.182;2022-07-12T10:25:31;24.00;80.80
4183;DHT22;2105;52.300;9.182;2022-07-12T10:27:58;23.80;99.90
4183;DHT22;2105;52.300;9.182;2022-07-12T10:30:25;24.00;88.20
4183;DHT22;2105;52.300;9.182;2022-07-12T10:32:53;24.10;9.90
4183;DHT22;2105;52.300;9.182;2022-07-12T10:35:24;24.30;99.90
4183;DHT22;2105;52.300;9.182;2022-07-12T10:38:19;24.80;52.80
4183;DHT22;2105;52.300;9.182;2022-07-12T10:40:49;25.20;33.00
4183;DHT22;2105;52.300;9.182;2022-07-12T10:43:27;25.50;1.00
4183;DHT22;2105;52.300;9.182;2022-07-12T10:46:23;25.40;1.00
4183;DHT22;2105;52.300;9.182;2022-07-12T10:49:23;25.40;1.00
4183;DHT22;2105;52.300;9.182;2022-07-12T10:52:13;25.60;1.00
4183;DHT22;2105;52.300;9.182;2022-07-12T10:54:41;25.70;1.00
4183;DHT22;2105;52.300;9.182;2022-07-12T10:57:09;26.00;1.00
4183;DHT22;2105;52.300;9.182;2022-07-12T10:59:37;26.00;1.00
4183;DHT22;2105;52.300;9.182;2022-07-12T11:02:04;25.90;1.00
4183;DHT22;2105;52.300;9.182;2022-07-12T11:04:31;25.70;1.00
4183;DHT22;2105;52.300;9.182;2022-07-12T11:07:01;25.50;1.00
4183;DHT22;2105;52.300;9.182;2022-07-12T11:09:28;25.40;1.00
4183;DHT22;2105;52.300;9.182;2022-07-12T11:11:54;25.20;1.00
4183;DHT22;2105;52.300;9.182;2022-07-12T11:14:23;25.30;1.00
4183;DHT22;2105;52.300;9.182;2022-07-12T11:16:51;25.60;1.00
4183;DHT22;2105;52.300;9.182;2022-07-12T12:24:08;28.10;1.00
4183;DHT22;2105;52.300;9.182;2022-07-12T12:26:35;28.20;1.00
4183;DHT22;2105;52.300;9.182;2022-07-12T12:29:02;28.10;1.00
4183;DHT22;2105;52.300;9.182;2022-07-12T12:31:29;28.20;1.00
4183;DHT22;2105;52.300;9.182;2022-07-12T12:33:55;28.10;1.00
4183;DHT22;2105;52.300;9.182;2022-07-12T12:36:25;28.00;1.00
4183;DHT22;2105;52.300;9.182;2022-07-12T12:38:55;28.10;1.00
4183;DHT22;2105;52.300;9.182;2022-07-12T12:41:23;28.40;1.00
4183;DHT22;2105;52.300;9.182;2022-07-12T12:43:56;28.60;1.00
4183;DHT22;2105;52.300;9.182;2022-07-12T12:46:51;28.80;1.00
4183;DHT22;2105;52.300;9.182;2022-07-12T12:49:43;28.70;1.00
4183;DHT22;2105;52.300;9.182;2022-07-12T12:52:09;28.80;1.00
4183;DHT22;2105;52.300;9.182;2022-07-12T12:54:38;28.80;1.00
4183;DHT22;2105;52.300;9.182;2022-07-12T12:57:05;28.40;1.00
4183;DHT22;2105;52.300;9.182;2022-07-12T12:59:33;28.60;1.00
4183;DHT22;2105;52.300;9.182;2022-07-12T13:02:00;28.70;1.00
4183;DHT22;2105;52.300;9.182;2022-07-12T13:04:28;28.80;1.00
4183;DHT22;2105;52.300;9.182;2022-07-12T13:06:55;28.90;1.00
4183;DHT22;2105;52.300;9.182;2022-07-12T13:09:22;28.90;1.00
4183;DHT22;2105;52.300;9.182;2022-07-12T13:11:50;29.00;1.00
4183;DHT22;2105;52.300;9.182;2022-07-12T13:14:17;29.00;1.00
4183;DHT22;2105;52.300;9.182;2022-07-12T13:16:44;29.20;1.00
4183;DHT22;2105;52.300;9.182;2022-07-12T13:19:10;29.40;1.00
4183;DHT22;2105;52.300;9.182;2022-07-12T13:21:37;29.60;1.00
4183;DHT22;2105;52.300;9.182;2022-07-12T13:24:04;29.70;1.00
4183;DHT22;2105;52.300;9.182;2022-07-12T13:26:31;29.80;1.00
4183;DHT22;2105;52.300;9.182;2022-07-12T13:28:59;29.80;1.00
4183;DHT22;2105;52.300;9.182;2022-07-12T13:31:26;29.60;1.00
4183;DHT22;2105;52.300;9.182;2022-07-12T13:33:53;29.40;1.00
4183;DHT22;2105;52.300;9.182;2022-07-12T13:36:21;29.20;1.00
4183;DHT22;2105;52.300;9.182;2022-07-12T13:38:48;29.40;1.00
4183;DHT22;2105;52.300;9.182;2022-07-12T13:41:15;29.50;1.00
4183;DHT22;2105;52.300;9.182;2022-07-12T13:43:42;29.70;1.00
4183;DHT22;2105;52.300;9.182;2022-07-12T13:46:10;29.70;1.00
4183;DHT22;2105;52.300;9.182;2022-07-12T13:48:36;29.70;1.00
4183;DHT22;2105;52.300;9.182;2022-07-12T13:51:03;29.80;1.00
4183;DHT22;2105;52.300;9.182;2022-07-12T13:53:30;29.90;1.00
4183;DHT22;2105;52.300;9.182;2022-07-12T13:55:57;30.00;1.00
4183;DHT22;2105;52.300;9.182;2022-07-12T13:58:24;30.00;1.00
4183;DHT22;2105;52.300;9.182;2022-07-12T14:00:51;30.00;1.00
4183;DHT22;2105;52.300;9.182;2022-07-12T14:03:18;30.00;1.00
4183;DHT22;2105;52.300;9.182;2022-07-12T14:05:45;30.10;1.00
4183;DHT22;2105;52.300;9.182;2022-07-12T14:08:12;30.20;1.00
4183;DHT22;2105;52.300;9.182;2022-07-12T14:10:38;30.20;1.00
4183;DHT22;2105;52.300;9.182;2022-07-12T14:13:05;30.40;1.00
4183;DHT22;2105;52.300;9.182;2022-07-12T14:15:32;30.50;1.00
4183;DHT22;2105;52.300;9.182;2022-07-12T14:18:07;30.50;1.00
4183;DHT22;2105;52.300;9.182;2022-07-12T14:20:36;30.20;1.00
4183;DHT22;2105;52.300;9.182;2022-07-12T14:23:03;30.00;1.00
4183;DHT22;2105;52.300;9.182;2022-07-12T14:25:31;30.00;1.00
4183;DHT22;2105;52.300;9.182;2022-07-12T14:27:58;29.90;1.00
4183;DHT22;2105;52.300;9.182;2022-07-12T14:30:24;29.70;1.00
4183;DHT22;2105;52.300;9.182;2022-07-12T14:32:51;29.50;1.00
4183;DHT22;2105;52.300;9.182;2022-07-12T14:35:18;29.50;1.00
4183;DHT22;2105;52.300;9.182;2022-07-12T14:37:46;29.40;1.00
4183;DHT22;2105;52.300;9.182;2022-07-12T14:40:12;29.20;1.00
4183;DHT22;2105;52.300;9.182;2022-07-12T14:42:39;29.00;1.00
4183;DHT22;2105;52.300;9.182;2022-07-12T14:45:07;29.10;1.00
4183;DHT22;2105;52.300;9.182;2022-07-12T14:47:34;29.20;1.00
4183;DHT22;2105;52.300;9.182;2022-07-12T14:50:00;29.30;1.00
4183;DHT22;2105;52.300;9.182;2022-07-12T14:52:30;29.40;1.00
4183;DHT22;2105;52.300;9.182;2022-07-12T14:54:58;29.20;1.00
4183;DHT22;2105;52.300;9.182;2022-07-12T14:57:25;29.00;1.00
4183;DHT22;2105;52.300;9.182;2022-07-12T14:59:52;28.90;1.00
4183;DHT22;2105;52.300;9.182;2022-07-12T15:02:19;28.60;1.00
4183;DHT22;2105;52.300;9.182;2022-07-12T15:04:46;28.60;1.00
4183;DHT22;2105;52.300;9.182;2022-07-12T15:07:12;28.80;1.00
4183;DHT22;2105;52.300;9.182;2022-07-12T15:09:39;29.00;1.00
4183;DHT22;2105;52.300;9.182;2022-07-12T15:12:07;29.10;1.00
4183;DHT22;2105;52.300;9.182;2022-07-12T15:14:34;29.00;1.00
4183;DHT22;2105;52.300;9.182;2022-07-12T15:17:00;29.00;1.00
4183;DHT22;2105;52.300;9.182;2022-07-12T15:19:27;29.00;1.00
4183;DHT22;2105;52.300;9.182;2022-07-12T15:21:54;29.00;1.00
4183;DHT22;2105;52.300;9.182;2022-07-12T15:24:21;29.10;1.00
4183;DHT22;2105;52.300;9.182;2022-07-12T15:26:47;29.20;1.00
4183;DHT22;2105;52.300;9.182;2022-07-12T15:29:15;29.10;1.00
4183;DHT22;2105;52.300;9.182;2022-07-12T15:31:42;28.90;1.00
4183;DHT22;2105;52.300;9.182;2022-07-12T15:34:10;28.80;1.00
4183;DHT22;2105;52.300;9.182;2022-07-12T15:36:36;28.70;1.00
4183;DHT22;2105;52.300;9.182;2022-07-12T15:39:03;28.70;1.00
4183;DHT22;2105;52.300;9.182;2022-07-12T15:41:30;28.50;1.00
4183;DHT22;2105;52.300;9.182;2022-07-12T15:43:57;28.40;1.00
4183;DHT22;2105;52.300;9.182;2022-07-12T15:46:25;28.40;1.00
4183;DHT22;2105;52.300;9.182;2022-07-12T15:48:52;28.40;1.00
4183;DHT22;2105;52.300;9.182;2022-07-12T15:51:19;28.30;1.00
4183;DHT22;2105;52.300;9.182;2022-07-12T15:54:06;28.20;1.00
4183;DHT22;2105;52.300;9.182;2022-07-12T15:56:31;28.10;1.00
4183;DHT22;2105;52.300;9.182;2022-07-12T15:58:58;28.00;1.00
4183;DHT22;2105;52.300;9.182;2022-07-12T16:01:26;28.10;1.00
4183;DHT22;2105;52.300;9.182;2022-07-12T16:03:53;28.10;1.00
4183;DHT22;2105;52.300;9.182;2022-07-12T16:06:19;28.00;1.00
4183;DHT22;2105;52.300;9.182;2022-07-12T16:08:46;28.00;1.00
4183;DHT22;2105;52.300;9.182;2022-07-12T16:11:13;27.90;1.00
4183;DHT22;2105;52.300;9.182;2022-07-12T16:13:40;27.90;1.00
4183;DHT22;2105;52.300;9.182;2022-07-12T16:16:07;27.90;1.00
4183;DHT22;2105;52.300;9.182;2022-07-12T16:18:35;27.90;1.00
4183;DHT22;2105;52.300;9.182;2022-07-12T16:21:01;27.80;1.00
4183;DHT22;2105;52.300;9.182;2022-07-12T16:23:28;27.70;1.00
4183;DHT22;2105;52.300;9.182;2022-07-12T16:25:55;27.60;1.00
4183;DHT22;2105;52.300;9.182;2022-07-12T16:28:22;27.40;1.00
4183;DHT22;2105;52.300;9.182;2022-07-12T16:30:50;27.30;1.00
4183;DHT22;2105;52.300;9.182;2022-07-12T16:33:17;27.20;1.00
4183;DHT22;2105;52.300;9.182;2022-07-12T16:35:45;27.10;1.00
4183;DHT22;2105;52.300;9.182;2022-07-12T16:38:12;27.00;1.00
4183;DHT22;2105;52.300;9.182;2022-07-12T16:40:39;27.00;1.00
4183;DHT22;2105;52.300;9.182;2022-07-12T16:43:06;27.00;1.00
4183;DHT22;2105;52.300;9.182;2022-07-12T16:45:32;27.00;1.00
4183;DHT22;2105;52.300;9.182;2022-07-12T16:47:59;27.00;1.00
4183;DHT22;2105;52.300;9.182;2022-07-12T16:50:25;27.00;1.00
4183;DHT22;2105;52.300;9.182;2022-07-12T16:52:53;26.90;1.00
4183;DHT22;2105;52.300;9.182;2022-07-12T16:55:20;27.00;1.00
4183;DHT22;2105;52.300;9.182;2022-07-12T16:57:47;27.00;1.00
4183;DHT22;2105;52.300;9.182;2022-07-12T17:00:14;27.00;1.00
4183;DHT22;2105;52.300;9.182;2022-07-12T17:02:41;27.00;1.00
4183;DHT22;2105;52.300;9.182;2022-07-12T17:05:08;27.00;1.00
4183;DHT22;2105;52.300;9.182;2022-07-12T17:07:35;27.00;1.00
4183;DHT22;2105;52.300;9.182;2022-07-12T17:10:03;26.90;1.00
4183;DHT22;2105;52.300;9.182;2022-07-12T17:12:31;26.80;1.00
4183;DHT22;2105;52.300;9.182;2022-07-12T17:14:58;26.60;1.00
4183;DHT22;2105;52.300;9.182;2022-07-12T17:17:25;26.50;1.00
4183;DHT22;2105;52.300;9.182;2022-07-12T17:19:52;26.50;1.00